createdAt,value
2019-05-06T00:00:24.587Z,1018.80
2019-05-06T00:01:24.088Z,1009.60
2019-05-06T00:02:24.582Z,1002.30
2019-05-06T00:03:24.731Z,999.80
2019-05-06T00:04:24.703Z,999.40
2019-05-06T00:05:25.482Z,1003.20
2019-05-06T00:06:23.852Z,1026.80
2019-05-06T00:07:24.263Z,1010.60
2019-05-06T00:08:23.792Z,998.00
2019-05-06T00:09:24.091Z,1034.80
2019-05-06T00:10:24.518Z,1051.70
2019-05-06T00:11:23.991Z,1064.00
2019-05-06T00:12:24.000Z,1065.80
2019-05-06T00:13:24.170Z,1039.30
2019-05-06T00:14:23.689Z,1051.90
2019-05-06T00:15:23.597Z,1047.10
2019-05-06T00:16:23.858Z,1054.20
2019-05-06T00:17:24.016Z,1066.60
2019-05-06T00:18:24.501Z,1057.80
2019-05-06T00:19:24.689Z,1059.10
2019-05-06T00:20:24.321Z,1075.00
2019-05-06T00:21:24.358Z,1046.20
2019-05-06T00:22:23.798Z,1059.40
2019-05-06T00:23:24.942Z,1054.90
2019-05-06T00:24:23.967Z,1053.70
2019-05-06T00:25:24.286Z,1036.70
2019-05-06T00:26:24.318Z,1054.60
2019-05-06T00:27:24.724Z,1058.30
2019-05-06T00:28:24.447Z,1043.80
2019-05-06T00:29:24.196Z,1073.10
2019-05-06T00:30:24.354Z,1051.20
2019-05-06T00:31:23.975Z,1063.50
2019-05-06T00:32:24.305Z,1076.10
2019-05-06T00:33:24.278Z,1089.10
2019-05-06T00:34:24.588Z,1082.50
2019-05-06T00:35:23.503Z,1111.20
2019-05-06T00:36:23.818Z,1098.10
2019-05-06T00:37:24.116Z,1095.90
2019-05-06T00:38:24.618Z,1098.20
2019-05-06T00:39:24.332Z,1089.90
2019-05-06T00:40:24.394Z,1103.60
2019-05-06T00:41:24.702Z,1082.10
2019-05-06T00:42:24.612Z,1086.80
2019-05-06T00:43:23.657Z,1094.50
2019-05-06T00:44:23.915Z,1091.70
2019-05-06T00:45:24.371Z,1076.90
2019-05-06T00:46:24.294Z,1080.60
2019-05-06T00:47:24.579Z,1084.40
2019-05-06T00:48:24.414Z,1071.80
2019-05-06T00:49:23.855Z,1042.20
2019-05-06T00:50:23.912Z,1041.10
2019-05-06T00:51:24.148Z,1030.90
2019-05-06T00:52:25.737Z,1046.70
2019-05-06T00:53:23.905Z,1026.20
2019-05-06T00:54:24.815Z,1036.40
2019-05-06T00:55:24.125Z,1035.40
2019-05-06T00:56:24.344Z,1046.90
2019-05-06T00:57:23.440Z,1054.20
2019-05-06T00:58:23.864Z,1035.00
2019-05-06T00:59:23.814Z,1027.80
2019-05-06T01:00:24.401Z,1031.40
2019-05-06T01:01:28.752Z,1033.80
2019-05-06T01:02:24.143Z,1042.70
2019-05-06T01:03:23.935Z,1038.60
2019-05-06T01:04:24.486Z,1030.50
2019-05-06T01:05:24.448Z,1032.90
2019-05-06T01:06:24.651Z,1017.90
2019-05-06T01:07:23.703Z,1012.50
2019-05-06T01:08:23.998Z,990.20
2019-05-06T01:09:23.488Z,992.00
2019-05-06T01:10:23.822Z,981.50
2019-05-06T01:11:23.894Z,975.30
2019-05-06T01:12:23.993Z,978.30
2019-05-06T01:13:24.156Z,989.50
2019-05-06T01:14:23.523Z,1004.10
2019-05-06T01:15:23.862Z,997.50
2019-05-06T01:16:24.915Z,992.40
2019-05-06T01:17:24.336Z,999.40
2019-05-06T01:18:24.483Z,1020.00
2019-05-06T01:19:23.570Z,1006.40
2019-05-06T01:20:24.635Z,1007.00
2019-05-06T01:21:23.806Z,1009.10
2019-05-06T01:22:24.676Z,1001.20
2019-05-06T01:23:23.450Z,1039.20
2019-05-06T01:24:23.842Z,1031.70
2019-05-06T01:25:23.747Z,1043.80
2019-05-06T01:26:24.290Z,1048.40
2019-05-06T01:27:24.056Z,1054.00
2019-05-06T01:28:24.481Z,1070.50
2019-05-06T01:29:24.088Z,1062.20
2019-05-06T01:30:24.340Z,1062.40
2019-05-06T01:31:24.696Z,1062.60
2019-05-06T01:32:23.632Z,1076.40
2019-05-06T01:33:24.123Z,1067.90
2019-05-06T01:34:24.498Z,1062.50
2019-05-06T01:35:24.519Z,1056.50
2019-05-06T01:36:24.771Z,1064.20
2019-05-06T01:37:23.973Z,1073.00
2019-05-06T01:38:24.264Z,1060.00
2019-05-06T01:39:24.431Z,1036.30
2019-05-06T01:40:23.877Z,1027.00
2019-05-06T01:41:24.367Z,1050.00
2019-05-06T01:42:24.619Z,1049.00
2019-05-06T01:43:24.139Z,1019.30
2019-05-06T01:44:24.383Z,1032.10
2019-05-06T01:45:23.769Z,1022.10
2019-05-06T01:46:24.291Z,1021.50
2019-05-06T01:47:23.784Z,1025.80
2019-05-06T01:48:24.476Z,986.00
2019-05-06T01:49:24.432Z,1011.50
2019-05-06T01:50:23.560Z,993.30
2019-05-06T01:51:24.079Z,985.70
2019-05-06T01:52:24.054Z,989.00
2019-05-06T01:53:24.173Z,986.00
2019-05-06T01:54:24.764Z,965.70
2019-05-06T01:55:23.898Z,994.90
2019-05-06T01:56:24.124Z,986.30
2019-05-06T01:57:24.404Z,1009.80
2019-05-06T01:58:24.285Z,1012.50
2019-05-06T01:59:24.437Z,1003.80
2019-05-06T02:00:23.689Z,1019.90
2019-05-06T02:01:24.883Z,1005.80
2019-05-06T02:02:23.934Z,1001.50
2019-05-06T02:03:24.225Z,1019.90
2019-05-06T02:04:24.346Z,1014.80
2019-05-06T02:05:24.201Z,1012.80
2019-05-06T02:06:24.789Z,1028.60
2019-05-06T02:07:24.176Z,1024.30
2019-05-06T02:08:24.337Z,1013.20
2019-05-06T02:09:24.606Z,1015.70
2019-05-06T02:10:23.847Z,1029.90
2019-05-06T02:11:24.094Z,1007.70
2019-05-06T02:12:24.519Z,990.00
2019-05-06T02:13:23.803Z,1012.10
2019-05-06T02:14:24.494Z,1015.30
2019-05-06T02:15:23.880Z,1026.30
2019-05-06T02:16:24.062Z,990.70
2019-05-06T02:17:23.901Z,1012.40
2019-05-06T02:18:24.245Z,987.20
2019-05-06T02:19:24.163Z,990.00
2019-05-06T02:20:24.507Z,986.40
2019-05-06T02:21:24.465Z,992.40
2019-05-06T02:22:24.091Z,993.60
2019-05-06T02:23:24.108Z,1003.60
2019-05-06T02:24:24.191Z,994.60
2019-05-06T02:25:24.329Z,1017.90
2019-05-06T02:26:23.906Z,992.00
2019-05-06T02:27:22.223Z,1013.30
2019-05-06T02:28:23.580Z,1023.30
2019-05-06T02:29:24.451Z,1028.60
2019-05-06T02:30:25.023Z,1029.20
2019-05-06T02:31:25.500Z,1012.50
2019-05-06T02:32:28.941Z,1023.70
2019-05-06T02:33:24.606Z,1044.40
2019-05-06T02:34:25.118Z,1031.70
2019-05-06T02:35:26.079Z,1045.40
2019-05-06T02:36:25.572Z,1040.30
2019-05-06T02:37:25.144Z,1037.50
2019-05-06T02:38:23.411Z,1041.00
2019-05-06T02:39:23.498Z,1055.40
2019-05-06T02:40:24.894Z,1043.60
2019-05-06T02:41:23.245Z,1033.00
2019-05-06T02:42:23.889Z,1051.10
2019-05-06T02:43:23.134Z,1024.70
2019-05-06T02:44:23.957Z,1050.40
2019-05-06T02:45:23.890Z,1046.70
2019-05-06T02:46:23.776Z,1062.30
2019-05-06T02:47:23.001Z,1060.50
2019-05-06T02:48:22.890Z,1049.80
2019-05-06T02:49:23.702Z,1060.40
2019-05-06T02:50:23.909Z,1045.40
2019-05-06T02:51:24.413Z,1031.80
2019-05-06T02:52:22.952Z,1033.70
2019-05-06T02:53:23.610Z,1040.80
2019-05-06T02:54:23.459Z,1038.40
2019-05-06T02:55:23.567Z,1042.00
2019-05-06T02:56:24.013Z,1032.80
2019-05-06T02:57:23.722Z,1042.50
2019-05-06T02:58:23.783Z,1056.00
2019-05-06T02:59:24.029Z,1037.70
2019-05-06T03:00:23.852Z,1038.10
2019-05-06T03:01:23.359Z,1049.30
2019-05-06T03:02:39.075Z,1036.70
2019-05-06T03:03:23.366Z,1016.50
2019-05-06T03:04:23.652Z,1035.30
2019-05-06T03:05:23.750Z,1020.20
2019-05-06T03:06:23.808Z,1021.10
2019-05-06T03:07:23.372Z,1020.80
2019-05-06T03:08:23.701Z,1020.10
2019-05-06T03:09:23.299Z,1033.20
2019-05-06T03:10:24.768Z,1026.10
2019-05-06T03:11:23.998Z,1037.00
2019-05-06T03:12:22.860Z,1034.70
2019-05-06T03:13:23.633Z,1033.40
2019-05-06T03:14:23.348Z,1044.60
2019-05-06T03:15:23.956Z,1041.90
2019-05-06T03:16:23.792Z,1055.20
2019-05-06T03:17:23.489Z,1069.20
2019-05-06T03:18:23.593Z,1059.60
2019-05-06T03:19:23.964Z,1069.20
2019-05-06T03:20:23.650Z,1067.30
2019-05-06T03:21:24.605Z,1053.60
2019-05-06T03:22:27.382Z,1072.90
2019-05-06T03:23:23.648Z,1077.70
2019-05-06T03:24:23.695Z,1049.90
2019-05-06T03:25:24.022Z,1061.70
2019-05-06T03:26:23.587Z,1061.80
2019-05-06T03:27:23.536Z,1073.10
2019-05-06T03:28:22.556Z,1057.10
2019-05-06T03:29:21.556Z,1057.90
2019-05-06T03:30:25.599Z,1044.90
2019-05-06T03:31:26.130Z,1041.30
2019-05-06T03:32:29.793Z,1035.90
2019-05-06T03:33:47.639Z,1023.90
2019-05-06T03:34:49.330Z,1043.10
2019-05-06T03:35:40.644Z,1060.00
2019-05-06T03:36:27.266Z,1036.50
2019-05-06T03:37:23.944Z,1053.90
2019-05-06T03:38:22.909Z,1052.40
2019-05-06T03:39:23.215Z,1035.10
2019-05-06T03:40:23.073Z,1054.10
2019-05-06T03:41:23.371Z,1054.70
2019-05-06T03:42:23.042Z,1053.60
2019-05-06T03:43:23.299Z,1046.00
2019-05-06T03:44:23.866Z,1044.90
2019-05-06T03:45:23.708Z,1045.30
2019-05-06T03:46:23.205Z,1030.10
2019-05-06T03:47:23.471Z,1022.70
2019-05-06T03:48:23.817Z,1010.60
2019-05-06T03:49:23.815Z,1027.80
2019-05-06T03:50:23.806Z,1029.40
2019-05-06T03:51:23.364Z,1039.20
2019-05-06T03:52:23.219Z,1034.90
2019-05-06T03:53:23.227Z,1043.60
2019-05-06T03:54:23.199Z,1038.50
2019-05-06T03:55:23.485Z,1030.90
2019-05-06T03:56:23.846Z,1041.00
2019-05-06T03:57:23.229Z,1022.20
2019-05-06T03:58:26.317Z,1018.80
2019-05-06T03:59:23.284Z,1031.70
2019-05-06T04:00:23.685Z,1047.60
2019-05-06T04:01:24.069Z,1026.50
2019-05-06T04:02:23.736Z,1034.10
2019-05-06T04:03:33.745Z,1030.80
2019-05-06T04:04:23.396Z,1028.60
2019-05-06T04:05:23.877Z,1025.30
2019-05-06T04:06:23.887Z,1025.40
2019-05-06T04:07:23.404Z,1030.70
2019-05-06T04:08:23.960Z,1042.50
2019-05-06T04:09:23.905Z,1063.40
2019-05-06T04:10:22.897Z,1057.00
2019-05-06T04:11:22.879Z,1046.90
2019-05-06T04:12:23.302Z,1064.00
2019-05-06T04:13:23.193Z,1057.00
2019-05-06T04:14:23.711Z,1071.20
2019-05-06T04:15:22.983Z,1065.10
2019-05-06T04:16:23.096Z,1058.50
2019-05-06T04:17:23.657Z,1070.50
2019-05-06T04:18:23.910Z,1067.40
2019-05-06T04:19:23.488Z,1068.90
2019-05-06T04:20:23.603Z,1064.20
2019-05-06T04:21:23.997Z,1082.10
2019-05-06T04:22:23.528Z,1065.20
2019-05-06T04:23:23.375Z,1058.10
2019-05-06T04:24:22.909Z,1070.30
2019-05-06T04:25:23.298Z,1078.60
2019-05-06T04:26:23.806Z,1070.50
2019-05-06T04:27:22.803Z,1095.70
2019-05-06T04:28:23.605Z,1086.80
2019-05-06T04:29:23.837Z,1080.70
2019-05-06T04:30:24.047Z,1093.10
2019-05-06T04:31:22.837Z,1082.30
2019-05-06T04:32:23.339Z,1086.20
2019-05-06T04:33:23.486Z,1086.10
2019-05-06T04:34:23.381Z,1084.10
2019-05-06T04:35:22.937Z,1083.80
2019-05-06T04:36:23.511Z,1066.50
2019-05-06T04:37:23.927Z,1091.30
2019-05-06T04:38:23.481Z,1065.90
2019-05-06T04:39:23.429Z,1042.00
2019-05-06T04:40:23.564Z,1055.10
2019-05-06T04:41:23.089Z,1053.00
2019-05-06T04:42:23.269Z,1077.00
2019-05-06T04:43:26.291Z,1061.50
2019-05-06T04:44:23.722Z,1066.90
2019-05-06T04:45:23.557Z,1062.60
2019-05-06T04:46:23.660Z,1054.50
2019-05-06T04:47:23.832Z,1074.00
2019-05-06T04:48:23.483Z,1069.40
2019-05-06T04:49:23.515Z,1041.70
2019-05-06T04:50:23.861Z,1043.20
2019-05-06T04:51:20.703Z,1054.30
2019-05-06T04:52:25.575Z,1060.80
2019-05-06T04:53:26.403Z,1054.00
2019-05-06T04:54:26.215Z,1065.50
2019-05-06T04:55:22.650Z,1051.20
2019-05-06T04:56:23.436Z,1068.00
2019-05-06T04:57:23.475Z,1048.80
2019-05-06T04:58:23.125Z,1059.00
2019-05-06T04:59:23.102Z,1055.50
2019-05-06T05:00:23.251Z,1065.90
2019-05-06T05:01:23.138Z,1064.30
2019-05-06T05:02:22.886Z,1058.80
2019-05-06T05:03:22.813Z,1061.20
2019-05-06T05:04:27.787Z,1059.40
2019-05-06T05:05:23.143Z,1071.50
2019-05-06T05:06:22.943Z,1066.00
2019-05-06T05:07:22.465Z,1084.90
2019-05-06T05:08:22.339Z,1073.60
2019-05-06T05:09:22.881Z,1073.60
2019-05-06T05:10:23.114Z,1081.20
2019-05-06T05:11:22.700Z,1081.90
2019-05-06T05:12:22.699Z,1069.50
2019-05-06T05:13:22.978Z,1067.10
2019-05-06T05:14:25.323Z,1066.80
2019-05-06T05:15:22.768Z,1065.00
2019-05-06T05:16:22.124Z,1080.20
2019-05-06T05:17:22.341Z,1082.00
2019-05-06T05:18:22.132Z,1094.40
2019-05-06T05:19:20.402Z,1077.50
2019-05-06T05:20:35.904Z,1069.90
2019-05-06T05:21:22.916Z,1091.20
2019-05-06T05:22:21.935Z,1089.10
2019-05-06T05:23:22.808Z,1118.80
2019-05-06T05:24:20.363Z,1107.80
2019-05-06T05:25:22.120Z,1117.50
2019-05-06T05:26:22.399Z,1116.60
2019-05-06T05:27:21.962Z,1123.30
2019-05-06T05:28:22.311Z,1128.40
2019-05-06T05:29:20.300Z,1146.90
2019-05-06T05:30:22.026Z,1134.20
2019-05-06T05:31:20.279Z,1139.00
2019-05-06T05:32:22.340Z,1153.70
2019-05-06T05:33:22.348Z,1129.50
2019-05-06T05:34:22.308Z,1148.30
2019-05-06T05:35:20.243Z,1144.10
2019-05-06T05:36:20.219Z,1131.50
2019-05-06T05:37:20.220Z,1133.90
2019-05-06T05:38:22.619Z,1130.90
2019-05-06T05:39:21.818Z,1134.30
2019-05-06T05:40:20.178Z,1126.90
2019-05-06T05:41:20.393Z,1137.70
2019-05-06T05:42:22.065Z,1121.70
2019-05-06T05:43:20.154Z,1133.90
2019-05-06T05:44:20.153Z,1129.10
2019-05-06T05:45:22.066Z,1121.20
2019-05-06T05:46:21.849Z,1134.30
2019-05-06T05:47:22.084Z,1112.20
2019-05-06T05:48:20.091Z,1126.70
2019-05-06T05:49:21.927Z,1117.70
2019-05-06T05:50:20.088Z,1100.90
2019-05-06T05:51:22.129Z,1103.80
2019-05-06T05:52:22.202Z,1109.90
2019-05-06T05:53:20.039Z,1110.40
2019-05-06T05:54:20.057Z,1103.90
2019-05-06T05:55:21.952Z,1101.50
2019-05-06T05:56:20.046Z,1106.90
2019-05-06T05:57:20.009Z,1100.60
2019-05-06T05:58:20.010Z,1086.10
2019-05-06T05:59:20.015Z,1089.00
2019-05-06T06:00:22.368Z,1091.90
2019-05-06T06:01:20.005Z,1078.70
2019-05-06T06:02:21.949Z,1099.90
2019-05-06T06:03:21.956Z,1091.00
2019-05-06T06:04:22.297Z,1087.60
2019-05-06T06:05:21.822Z,1067.50
2019-05-06T06:06:21.645Z,1094.00
2019-05-06T06:07:19.894Z,1074.60
2019-05-06T06:08:22.808Z,1070.50
2019-05-06T06:09:19.877Z,1059.60
2019-05-06T06:10:19.883Z,1077.50
2019-05-06T06:11:19.857Z,1064.30
2019-05-06T06:12:19.889Z,1069.00
2019-05-06T06:13:19.843Z,1069.40
2019-05-06T06:14:21.555Z,1060.70
2019-05-06T06:15:22.302Z,1047.00
2019-05-06T06:16:19.804Z,1046.90
2019-05-06T06:17:19.786Z,1059.20
2019-05-06T06:18:19.803Z,1047.40
2019-05-06T06:19:22.033Z,1049.80
2019-05-06T06:20:22.036Z,1049.40
2019-05-06T06:21:27.099Z,1042.60
2019-05-06T06:22:22.338Z,1034.00
2019-05-06T06:23:19.755Z,1037.30
2019-05-06T06:24:19.721Z,1044.40
2019-05-06T06:25:23.358Z,1054.70
2019-05-06T06:26:19.690Z,1031.60
2019-05-06T06:27:19.681Z,1010.30
2019-05-06T06:28:19.671Z,1044.00
2019-05-06T06:29:19.673Z,1045.00
2019-05-06T06:30:19.673Z,1010.70
2019-05-06T06:31:19.646Z,1016.10
2019-05-06T06:32:19.636Z,1025.90
2019-05-06T06:33:22.159Z,1021.20
2019-05-06T06:34:19.616Z,1012.80
2019-05-06T06:35:19.624Z,1031.30
2019-05-06T06:36:19.590Z,1031.60
2019-05-06T06:37:19.574Z,1046.70
2019-05-06T06:38:19.571Z,1034.80
2019-05-06T06:39:19.565Z,1052.60
2019-05-06T06:40:19.559Z,1062.90
2019-05-06T06:41:19.532Z,1054.50
2019-05-06T06:42:19.534Z,1065.40
2019-05-06T06:43:19.525Z,1043.60
2019-05-06T06:44:19.530Z,1056.60
2019-05-06T06:45:19.525Z,1071.80
2019-05-06T06:46:19.483Z,1067.60
2019-05-06T06:47:19.473Z,1077.10
2019-05-06T06:48:19.469Z,1095.00
2019-05-06T06:49:19.448Z,1104.30
2019-05-06T06:50:19.441Z,1105.00
2019-05-06T06:51:19.468Z,1102.80
2019-05-06T06:52:19.436Z,1113.80
2019-05-06T06:53:19.427Z,1116.90
2019-05-06T06:54:19.406Z,1109.00
2019-05-06T06:55:19.380Z,1113.70
2019-05-06T06:56:19.410Z,1132.70
2019-05-06T06:57:19.368Z,1131.60
2019-05-06T06:58:19.353Z,1126.30
2019-05-06T06:59:19.342Z,1135.90
2019-05-06T07:00:19.330Z,1123.50
2019-05-06T07:01:19.347Z,1130.30
2019-05-06T07:02:19.360Z,1144.90
2019-05-06T07:03:19.317Z,1148.90
2019-05-06T07:04:19.288Z,1165.80
2019-05-06T07:05:27.696Z,1166.60
2019-05-06T07:06:22.336Z,1159.10
2019-05-06T07:07:19.285Z,1160.10
2019-05-06T07:08:32.042Z,1164.40
2019-05-06T07:09:20.234Z,1162.30
2019-05-06T07:10:19.221Z,1158.60
2019-05-06T07:11:19.239Z,1162.00
2019-05-06T07:12:19.339Z,1161.00
2019-05-06T07:13:19.204Z,1153.60
2019-05-06T07:14:19.192Z,1148.50
2019-05-06T07:15:19.172Z,1170.30
2019-05-06T07:16:20.745Z,1179.10
2019-05-06T07:17:19.167Z,1165.50
2019-05-06T07:18:19.153Z,1168.70
2019-05-06T07:19:19.126Z,1152.60
2019-05-06T07:20:19.140Z,1149.90
2019-05-06T07:21:19.126Z,1160.90
2019-05-06T07:22:19.094Z,1158.50
2019-05-06T07:23:19.093Z,1175.90
2019-05-06T07:24:19.095Z,1159.70
2019-05-06T07:25:19.095Z,1137.00
2019-05-06T07:26:19.393Z,1162.40
2019-05-06T07:27:19.046Z,1162.60
2019-05-06T07:28:19.062Z,1149.50
2019-05-06T07:29:23.485Z,1149.60
2019-05-06T07:30:20.023Z,1147.10
2019-05-06T07:31:25.715Z,1138.80
2019-05-06T07:32:20.027Z,1146.40
2019-05-06T07:33:18.981Z,1172.00
2019-05-06T07:34:18.965Z,1164.60
2019-05-06T07:35:18.962Z,1177.30
2019-05-06T07:36:20.234Z,1193.30
2019-05-06T07:37:18.959Z,1178.20
2019-05-06T07:38:18.931Z,1185.50
2019-05-06T07:39:18.924Z,1181.10
2019-05-06T07:40:18.912Z,1196.60
2019-05-06T07:41:18.898Z,1175.20
2019-05-06T07:42:18.897Z,1174.60
2019-05-06T07:43:18.882Z,1186.00
2019-05-06T07:44:18.870Z,1192.60
2019-05-06T07:45:18.851Z,1211.60
2019-05-06T07:46:18.844Z,1197.20
2019-05-06T07:47:18.846Z,1189.00
2019-05-06T07:48:18.853Z,1184.00
2019-05-06T07:49:18.809Z,1190.70
2019-05-06T07:50:18.812Z,1194.00
2019-05-06T07:51:18.799Z,1186.60
2019-05-06T07:52:18.805Z,1204.70
2019-05-06T07:53:18.776Z,1190.00
2019-05-06T07:54:18.761Z,1189.80
2019-05-06T07:55:18.751Z,1182.10
2019-05-06T07:56:18.735Z,1197.30
2019-05-06T07:57:18.740Z,1203.80
2019-05-06T07:58:18.717Z,1195.70
2019-05-06T07:59:18.730Z,1188.70
2019-05-06T08:00:18.699Z,1186.70
2019-05-06T08:01:18.691Z,1179.40
2019-05-06T08:02:18.687Z,1178.00
2019-05-06T08:03:18.661Z,1178.90
2019-05-06T08:04:18.651Z,1189.90
2019-05-06T08:05:18.643Z,1195.10
2019-05-06T08:06:18.636Z,1192.20
2019-05-06T08:07:18.641Z,1174.30
2019-05-06T08:08:18.610Z,1180.10
2019-05-06T08:09:18.821Z,1183.60
2019-05-06T08:10:18.601Z,1176.10
2019-05-06T08:11:18.573Z,1172.00
2019-05-06T08:12:18.605Z,1163.30
2019-05-06T08:13:18.547Z,1169.80
2019-05-06T08:14:18.536Z,1178.10
2019-05-06T08:15:18.541Z,1180.00
2019-05-06T08:16:18.518Z,1182.40
2019-05-06T08:17:18.517Z,1171.90
2019-05-06T08:18:18.518Z,1167.60
2019-05-06T08:19:18.493Z,1155.80
2019-05-06T08:20:18.518Z,1146.00
2019-05-06T08:21:18.487Z,1159.60
2019-05-06T08:22:18.454Z,1149.40
2019-05-06T08:23:18.476Z,1154.80
2019-05-06T08:24:18.461Z,1161.50
2019-05-06T08:25:18.435Z,1160.70
2019-05-06T08:26:18.419Z,1154.50
2019-05-06T08:27:18.416Z,1145.30
2019-05-06T08:28:18.404Z,1159.50
2019-05-06T08:29:18.381Z,1140.80
2019-05-06T08:30:18.650Z,1142.20
2019-05-06T08:31:18.365Z,1153.90
2019-05-06T08:32:18.356Z,1147.70
2019-05-06T08:33:18.367Z,1145.10
2019-05-06T08:34:18.321Z,1143.80
2019-05-06T08:35:18.317Z,1129.90
2019-05-06T08:36:18.328Z,1143.70
2019-05-06T08:37:18.291Z,1152.90
2019-05-06T08:38:18.321Z,1142.10
2019-05-06T08:39:18.281Z,1156.90
2019-05-06T08:40:18.260Z,1155.20
2019-05-06T08:41:18.286Z,1153.00
2019-05-06T08:42:18.241Z,1154.60
2019-05-06T08:43:18.257Z,1140.30
2019-05-06T08:44:18.216Z,1151.50
2019-05-06T08:45:18.231Z,1148.60
2019-05-06T08:46:18.201Z,1138.40
2019-05-06T08:47:18.181Z,1118.70
2019-05-06T08:48:18.235Z,1130.80
2019-05-06T08:49:18.200Z,1149.40
2019-05-06T08:50:18.165Z,1143.80
2019-05-06T08:51:18.163Z,1154.50
2019-05-06T08:52:18.140Z,1138.50
2019-05-06T08:53:18.146Z,1138.00
2019-05-06T08:54:18.107Z,1139.80
2019-05-06T08:55:18.104Z,1147.90
2019-05-06T08:56:18.091Z,1155.30
2019-05-06T08:57:18.082Z,1132.50
2019-05-06T08:58:18.091Z,1144.80
2019-05-06T08:59:18.071Z,1130.20
2019-05-06T09:00:18.045Z,1132.50
2019-05-06T09:01:18.042Z,1125.70
2019-05-06T09:02:18.025Z,1147.10
2019-05-06T09:03:18.041Z,1143.50
2019-05-06T09:04:18.010Z,1146.20
2019-05-06T09:05:17.998Z,1129.90
2019-05-06T09:06:29.650Z,1140.50
2019-05-06T09:07:18.979Z,1154.90
2019-05-06T09:08:17.993Z,1140.30
2019-05-06T09:09:18.011Z,1145.80
2019-05-06T09:10:17.936Z,1128.50
2019-05-06T09:11:17.928Z,1142.50
2019-05-06T09:12:17.976Z,1159.50
2019-05-06T09:13:17.924Z,1143.00
2019-05-06T09:14:17.931Z,1152.30
2019-05-06T09:15:17.897Z,1140.70
2019-05-06T09:16:17.888Z,1148.90
2019-05-06T09:17:17.862Z,1142.40
2019-05-06T09:18:17.857Z,1117.90
2019-05-06T09:19:17.871Z,1092.70
2019-05-06T09:20:17.849Z,1077.80
2019-05-06T09:21:17.856Z,1077.50
2019-05-06T09:22:17.814Z,1084.10
2019-05-06T09:23:17.801Z,1063.10
2019-05-06T09:24:17.812Z,1064.60
2019-05-06T09:25:17.785Z,1046.90
2019-05-06T09:26:17.794Z,1060.10
2019-05-06T09:27:17.757Z,1050.90
2019-05-06T09:28:17.747Z,1052.60
2019-05-06T09:29:17.750Z,1044.50
2019-05-06T09:30:17.722Z,1043.70
2019-05-06T09:31:17.735Z,1062.30
2019-05-06T09:32:17.712Z,1064.20
2019-05-06T09:33:17.904Z,1052.40
2019-05-06T09:34:17.700Z,1071.30
2019-05-06T09:35:17.688Z,1070.80
2019-05-06T09:36:17.659Z,1064.40
2019-05-06T09:37:17.655Z,1049.00
2019-05-06T09:38:17.638Z,1042.10
2019-05-06T09:39:17.652Z,1059.60
2019-05-06T09:40:17.619Z,1057.80
2019-05-06T09:41:17.607Z,1069.20
2019-05-06T09:42:17.593Z,1076.50
2019-05-06T09:43:17.590Z,1085.50
2019-05-06T09:44:17.622Z,1090.40
2019-05-06T09:45:17.570Z,1058.30
2019-05-06T09:46:17.621Z,1086.90
2019-05-06T09:47:17.542Z,1095.10
2019-05-06T09:48:17.543Z,1087.60
2019-05-06T09:49:17.522Z,1077.20
2019-05-06T09:50:17.527Z,1094.80
2019-05-06T09:51:17.501Z,1086.00
2019-05-06T09:52:17.490Z,1080.00
2019-05-06T09:53:17.491Z,1087.40
2019-05-06T09:54:17.519Z,1089.70
2019-05-06T09:55:17.482Z,1086.50
2019-05-06T09:56:17.475Z,1084.30
2019-05-06T09:57:17.448Z,1085.30
2019-05-06T09:58:17.480Z,1094.80
2019-05-06T09:59:17.413Z,1082.30
2019-05-06T10:00:17.505Z,1085.70
2019-05-06T10:01:17.422Z,1085.60
2019-05-06T10:02:17.392Z,1085.50
2019-05-06T10:03:17.371Z,1079.60
2019-05-06T10:04:17.368Z,1085.80
2019-05-06T10:05:17.380Z,1091.80
2019-05-06T10:06:17.364Z,1096.80
2019-05-06T10:07:17.334Z,1105.10
2019-05-06T10:08:17.320Z,1110.50
2019-05-06T10:09:17.325Z,1091.80
2019-05-06T10:10:17.839Z,1109.60
2019-05-06T10:11:17.293Z,1102.50
2019-05-06T10:12:17.293Z,1104.30
2019-05-06T10:13:17.269Z,1100.80
2019-05-06T10:14:17.302Z,1111.90
2019-05-06T10:15:17.266Z,1110.60
2019-05-06T10:16:17.243Z,1131.20
2019-05-06T10:17:17.253Z,1101.20
2019-05-06T10:18:17.222Z,1121.70
2019-05-06T10:19:17.207Z,1125.90
2019-05-06T10:20:17.263Z,1127.20
2019-05-06T10:21:17.199Z,1134.90
2019-05-06T10:22:17.171Z,1109.50
2019-05-06T10:23:17.169Z,1120.70
2019-05-06T10:24:17.182Z,1117.10
2019-05-06T10:25:17.162Z,1142.60
2019-05-06T10:26:17.136Z,1130.70
2019-05-06T10:27:17.126Z,1106.40
2019-05-06T10:28:17.167Z,1135.40
2019-05-06T10:29:17.118Z,1135.70
2019-05-06T10:30:17.118Z,1128.80
2019-05-06T10:31:17.076Z,1146.30
2019-05-06T10:32:17.065Z,1140.80
2019-05-06T10:33:17.060Z,1153.40
2019-05-06T10:34:17.044Z,1138.30
2019-05-06T10:35:17.055Z,1139.00
2019-05-06T10:36:17.030Z,1141.90
2019-05-06T10:37:19.262Z,1152.50
2019-05-06T10:38:17.006Z,1164.80
2019-05-06T10:39:16.993Z,1168.60
2019-05-06T10:40:17.019Z,1159.20
2019-05-06T10:41:17.005Z,1157.60
2019-05-06T10:42:16.974Z,1153.40
2019-05-06T10:43:16.947Z,1148.80
2019-05-06T10:44:16.953Z,1148.30
2019-05-06T10:45:16.931Z,1136.90
2019-05-06T10:46:16.953Z,1134.30
2019-05-06T10:47:16.905Z,1135.00
2019-05-06T10:48:16.891Z,1153.80
2019-05-06T10:49:16.939Z,1144.10
2019-05-06T10:50:16.873Z,1134.00
2019-05-06T10:51:17.227Z,1148.70
2019-05-06T10:52:16.857Z,1148.10
2019-05-06T10:53:16.882Z,1144.20
2019-05-06T10:54:16.840Z,1138.10
2019-05-06T10:55:16.814Z,1141.20
2019-05-06T10:56:16.816Z,1131.30
2019-05-06T10:57:16.804Z,1144.70
2019-05-06T10:58:16.789Z,1138.30
2019-05-06T10:59:16.819Z,1135.50
2019-05-06T11:00:16.776Z,1137.10
2019-05-06T11:01:16.773Z,1148.10
2019-05-06T11:02:16.740Z,1133.60
2019-05-06T11:03:16.740Z,1149.90
2019-05-06T11:04:16.748Z,1142.10
2019-05-06T11:05:16.732Z,1138.60
2019-05-06T11:06:16.712Z,1142.60
2019-05-06T11:07:27.595Z,1141.10
2019-05-06T11:08:17.680Z,1132.80
2019-05-06T11:09:16.674Z,1142.60
2019-05-06T11:10:24.424Z,1145.00
2019-05-06T11:11:31.557Z,1147.80
2019-05-06T11:12:17.639Z,1133.80
2019-05-06T11:13:16.622Z,1142.20
2019-05-06T11:14:16.637Z,1157.10
2019-05-06T11:15:16.606Z,1143.50
2019-05-06T11:16:17.115Z,1124.20
2019-05-06T11:17:16.580Z,1143.80
2019-05-06T11:18:16.579Z,1141.20
2019-05-06T11:19:16.755Z,1153.20
2019-05-06T11:20:16.615Z,1128.30
2019-05-06T11:21:16.581Z,1146.30
2019-05-06T11:22:16.572Z,1146.80
2019-05-06T11:23:16.524Z,1140.00
2019-05-06T11:24:16.523Z,1136.40
2019-05-06T11:25:16.494Z,1131.10
2019-05-06T11:26:16.532Z,1141.60
2019-05-06T11:27:28.036Z,1137.20
2019-05-06T11:28:17.461Z,1139.60
2019-05-06T11:29:16.459Z,1133.90
2019-05-06T11:30:16.448Z,1137.50
2019-05-06T11:31:16.580Z,1137.30
2019-05-06T11:32:16.896Z,1141.20
2019-05-06T11:33:16.416Z,1148.50
2019-05-06T11:34:16.442Z,1138.40
2019-05-06T11:35:16.428Z,1140.90
2019-05-06T11:36:16.391Z,1128.90
2019-05-06T11:37:16.373Z,1144.40
2019-05-06T11:38:16.440Z,1119.70
2019-05-06T11:39:16.391Z,1135.90
2019-05-06T11:40:17.127Z,1128.70
2019-05-06T11:41:16.400Z,1129.00
2019-05-06T11:42:27.687Z,1140.80
2019-05-06T11:43:17.307Z,1137.30
2019-05-06T11:44:16.366Z,1136.00
2019-05-06T11:45:16.290Z,1118.80
2019-05-06T11:46:16.301Z,1134.40
2019-05-06T11:47:16.253Z,1125.60
2019-05-06T11:48:16.250Z,1128.60
2019-05-06T11:49:16.264Z,1121.90
2019-05-06T11:50:16.226Z,1127.00
2019-05-06T11:51:16.326Z,1135.80
2019-05-06T11:52:16.201Z,1131.10
2019-05-06T11:53:16.188Z,1134.80
2019-05-06T11:54:20.812Z,1117.10
2019-05-06T11:55:28.848Z,1126.70
2019-05-06T11:56:17.193Z,1137.30
2019-05-06T11:57:16.164Z,1130.80
2019-05-06T11:58:16.140Z,1109.70
2019-05-06T11:59:16.130Z,1124.40
2019-05-06T12:00:16.150Z,1109.70
2019-05-06T12:01:16.184Z,1078.70
2019-05-06T12:02:16.112Z,1094.80
2019-05-06T12:03:16.097Z,1121.10
2019-05-06T12:04:16.087Z,1185.30
2019-05-06T12:05:16.065Z,1233.00
2019-05-06T12:06:16.065Z,1257.70